KCBG

Cambridge Municipal Airport

Cambridge, Minnesota, USA
METAR KCBG 191555Z AUTO 34006KT 10SM OVC010 M04/M09 A3013 RMK AO2
Observed Flight Rules
Nov-19 @ 15:55 UTC (23 minutes ago) Marginal Visual Flight Rules
Wind Visibility Clouds
340° at 6 knots 10 miles
  • Overcast at 1,000' AGL
Temperatures Readings
Current -4°C / 25°F
Dewpoint -9°C / 16°F
Humidity 69%
Altimeter 30.13" Hg
Pressure 1020 hPa
Elevation 287
METAR KCBG 191555Z AUTO 34006KT 10SM OVC010 M04/M09 A3013 RMK AO2
Observed Flight Rules
Nov-19 @ 15:55 UTC
(23 minutes ago)
MVFR
Wind Visibility
340° at 6 knots 10 miles
Clouds
  • Overcast at 1,000' AGL
Temperature Dewpoint
-4°C / 25°F -9°C / 16°F
Humidity Altimeter Pressure
69% 30.13" Hg 1020 hPa